Time;durP1;ratioP1;P1;durP2;ratioP2;P2;SDS_P1;SDS_P2;PMS_P1;PMS_P2;Temp;Humidity;BMP_temperature;BMP_pressure;BME280_temperature;BME280_humidity;BME280_pressure;Samples;Min_cycle;Max_cycle;Signal;HPM_P1;HPM_P2
2021/07/10 00:00:35;;;;;;;20.67;12.97;;;18.60;99.90;;;;;;4998474;28;20580;-51
2021/07/10 00:03:02;;;;;;;18.30;13.67;;;18.60;99.90;;;;;;4997856;28;20732;-50
2021/07/10 00:05:29;;;;;;;20.93;13.93;;;18.70;95.70;;;;;;4998125;28;20280;-51
2021/07/10 00:07:56;;;;;;;20.80;12.57;;;18.70;99.90;;;;;;5000857;28;20233;-51
2021/07/10 00:10:23;;;;;;;20.77;13.60;;;18.60;99.90;;;;;;4999379;28;20299;-51
2021/07/10 00:12:50;;;;;;;20.00;13.47;;;18.50;99.90;;;;;;4999473;28;20284;-51
2021/07/10 00:15:20;;;;;;;20.03;13.77;;;18.40;99.90;;;;;;5000363;28;20221;-51
2021/07/10 00:17:48;;;;;;;22.87;13.80;;;18.20;99.90;;;;;;4998586;28;20295;-50
2021/07/10 00:20:16;;;;;;;22.70;13.83;;;18.10;99.90;;;;;;5000017;28;20309;-51
2021/07/10 00:22:43;;;;;;;20.63;14.43;;;17.90;99.90;;;;;;4999400;28;20275;-50
2021/07/10 00:25:15;;;;;;;25.43;13.77;;;18.10;99.90;;;;;;4999662;28;20785;-51
2021/07/10 00:27:44;;;;;;;20.67;14.10;;;18.00;99.90;;;;;;5000353;28;20629;-51
2021/07/10 00:30:11;;;;;;;19.37;13.37;;;18.00;99.90;;;;;;4999800;28;20239;-51
2021/07/10 00:32:38;;;;;;;20.57;13.63;;;17.90;99.90;;;;;;4998722;28;20268;-51
2021/07/10 00:35:07;;;;;;;19.17;13.60;;;17.90;99.90;;;;;;4999468;28;20208;-51
2021/07/10 00:37:35;;;;;;;21.50;13.10;;;17.90;99.90;;;;;;4996027;28;20216;-51
2021/07/10 00:40:04;;;;;;;19.80;13.73;;;17.90;99.90;;;;;;4999178;28;20213;-51
2021/07/10 00:42:32;;;;;;;25.60;14.37;;;17.90;99.90;;;;;;4996359;28;20673;-51
2021/07/10 00:44:59;;;;;;;22.67;13.60;;;17.80;99.90;;;;;;4999300;28;20265;-51
2021/07/10 00:47:27;;;;;;;20.77;14.40;;;17.70;99.90;;;;;;4998192;28;20295;-51
2021/07/10 00:49:55;;;;;;;23.83;13.70;;;17.70;99.90;;;;;;4999039;28;20260;-50
2021/07/10 00:52:21;;;;;;;23.60;14.07;;;18.00;99.90;;;;;;4995853;28;20242;-51
2021/07/10 00:54:48;;;;;;;23.30;14.03;;;17.80;99.90;;;;;;4998467;28;20620;-51
2021/07/10 00:57:16;;;;;;;22.97;14.40;;;17.90;99.90;;;;;;4997656;28;20237;-51
2021/07/10 00:59:44;;;;;;;24.70;13.70;;;18.00;99.90;;;;;;4996547;28;20679;-51
2021/07/10 01:02:11;;;;;;;25.13;14.80;;;17.90;99.90;;;;;;4995877;28;20245;-50
2021/07/10 01:04:39;;;;;;;26.53;14.70;;;17.80;99.90;;;;;;4997986;28;20226;-51
2021/07/10 01:07:06;;;;;;;24.37;15.43;;;17.90;99.90;;;;;;4998262;28;20610;-51
2021/07/10 01:09:33;;;;;;;24.43;14.43;;;17.70;99.90;;;;;;4998662;28;20595;-51
2021/07/10 01:12:00;;;;;;;23.43;14.50;;;17.60;99.90;;;;;;4997889;28;20233;-51
2021/07/10 01:14:27;;;;;;;25.80;15.10;;;17.60;99.90;;;;;;4999498;28;20261;-51
2021/07/10 01:16:54;;;;;;;22.13;14.27;;;17.60;99.90;;;;;;4997122;28;20275;-50
2021/07/10 01:19:28;;;;;;;26.07;15.23;;;17.70;99.90;;;;;;4997226;28;20219;-51
2021/07/10 01:21:57;;;;;;;22.30;14.90;;;17.50;99.90;;;;;;4999122;28;20259;-50
2021/07/10 01:24:25;;;;;;;22.87;15.00;;;17.50;99.90;;;;;;4997307;28;20213;-50
2021/07/10 01:26:52;;;;;;;24.10;15.03;;;17.50;99.90;;;;;;4998159;28;20298;-50
2021/07/10 01:29:19;;;;;;;28.87;15.50;;;17.30;99.90;;;;;;4997531;28;20301;-51
2021/07/10 01:31:47;;;;;;;23.73;14.87;;;17.20;99.90;;;;;;4997113;28;20789;-50
2021/07/10 01:34:14;;;;;;;23.03;14.47;;;17.20;99.90;;;;;;4996824;28;20685;-51
2021/07/10 01:36:42;;;;;;;25.53;15.67;;;17.20;99.90;;;;;;4996261;28;20695;-50
2021/07/10 01:39:09;;;;;;;22.17;14.53;;;17.20;99.90;;;;;;4996815;28;20264;-50
2021/07/10 01:41:41;;;;;;;26.00;14.97;;;17.30;99.90;;;;;;4997438;28;20277;-51
2021/07/10 01:44:08;;;;;;;24.90;15.47;;;17.40;99.90;;;;;;4997587;28;20263;-51
2021/07/10 01:46:35;;;;;;;23.73;14.40;;;17.40;99.90;;;;;;4996049;28;20243;-51
2021/07/10 01:49:02;;;;;;;27.10;14.10;;;17.30;99.90;;;;;;4999404;28;20241;-50
2021/07/10 01:51:29;;;;;;;23.27;13.77;;;17.40;99.90;;;;;;4997468;28;20214;-50
2021/07/10 01:53:55;;;;;;;24.23;14.53;;;17.50;99.90;;;;;;4994030;28;20308;-51
2021/07/10 01:56:23;;;;;;;26.73;14.50;;;17.40;99.90;;;;;;4995541;28;20284;-53
2021/07/10 01:58:50;;;;;;;22.97;15.07;;;17.30;99.90;;;;;;4991891;28;20294;-50
2021/07/10 02:01:17;;;;;;;24.73;15.50;;;17.40;99.90;;;;;;4993233;28;20240;-50
2021/07/10 02:03:44;;;;;;;26.50;16.40;;;17.50;99.90;;;;;;4991761;28;20207;-51
2021/07/10 02:06:11;;;;;;;22.77;15.37;;;17.50;99.90;;;;;;4998081;28;20895;-51
2021/07/10 02:08:38;;;;;;;25.67;15.20;;;17.50;99.90;;;;;;4991730;28;20329;-51
2021/07/10 02:11:05;;;;;;;21.83;14.30;;;17.50;99.90;;;;;;4995812;28;20313;-50
2021/07/10 02:13:32;;;;;;;26.53;14.50;;;17.50;99.90;;;;;;4993610;28;20210;-53
2021/07/10 02:15:59;;;;;;;24.47;14.37;;;17.60;99.90;;;;;;4996779;28;20649;-51
2021/07/10 02:18:26;;;;;;;19.97;14.73;;;17.40;99.90;;;;;;4991931;28;20316;-51
2021/07/10 02:20:53;;;;;;;26.23;14.87;;;17.30;99.90;;;;;;4994964;28;20295;-50
2021/07/10 02:23:20;;;;;;;23.03;14.67;;;17.40;99.90;;;;;;4997162;28;20280;-51
2021/07/10 02:25:47;;;;;;;22.27;13.53;;;17.30;99.90;;;;;;4994149;28;20385;-53
2021/07/10 02:28:14;;;;;;;23.90;14.57;;;17.40;99.90;;;;;;4996612;28;20268;-51
2021/07/10 02:30:41;;;;;;;24.37;16.03;;;17.40;99.90;;;;;;4995728;28;20237;-51
2021/07/10 02:33:08;;;;;;;24.77;14.13;;;17.40;99.90;;;;;;4995408;28;20300;-51
2021/07/10 02:35:35;;;;;;;24.43;15.73;;;17.40;99.90;;;;;;4996477;28;20243;-51
2021/07/10 02:38:02;;;;;;;25.33;15.03;;;17.40;99.90;;;;;;4996524;28;20250;-51
2021/07/10 02:40:29;;;;;;;26.83;15.30;;;17.40;99.90;;;;;;4996155;28;20515;-51
2021/07/10 02:42:56;;;;;;;23.70;14.50;;;17.40;99.90;;;;;;4996991;28;20689;-51
2021/07/10 02:45:24;;;;;;;25.00;15.40;;;17.30;99.90;;;;;;4996671;28;20251;-51
2021/07/10 02:47:51;;;;;;;24.47;14.60;;;17.20;99.90;;;;;;4995221;28;20296;-51
2021/07/10 02:50:21;;;;;;;27.40;15.10;;;17.10;99.90;;;;;;4997375;28;20312;-51
2021/07/10 02:52:49;;;;;;;26.73;16.43;;;17.10;99.90;;;;;;4995691;28;20637;-51
2021/07/10 02:55:16;;;;;;;27.43;15.63;;;16.90;99.90;;;;;;4995949;28;20662;-51
2021/07/10 02:57:43;;;;;;;27.03;14.70;;;16.80;99.90;;;;;;4994827;28;20333;-51
2021/07/10 03:00:17;;;;;;;25.67;15.80;;;17.00;99.90;;;;;;4993960;28;20293;-51
2021/07/10 03:02:44;;;;;;;29.70;15.47;;;17.10;99.90;;;;;;4996404;28;20435;-51
2021/07/10 03:05:12;;;;;;;26.53;16.10;;;17.20;99.90;;;;;;4997605;28;20256;-51
2021/07/10 03:07:40;;;;;;;25.50;15.10;;;17.40;99.90;;;;;;4996748;28;20278;-51
2021/07/10 03:10:09;;;;;;;25.03;15.60;;;17.20;99.90;;;;;;4996678;28;20328;-51
2021/07/10 03:12:36;;;;;;;25.97;15.80;;;17.00;99.90;;;;;;4996673;28;20293;-52
2021/07/10 03:15:04;;;;;;;24.00;15.37;;;17.10;99.90;;;;;;4999701;28;20240;-51
2021/07/10 03:17:31;;;;;;;25.47;15.33;;;16.90;99.90;;;;;;5000690;28;20252;-51
2021/07/10 03:19:57;;;;;;;24.27;15.07;;;17.10;99.90;;;;;;5000394;28;20237;-51
2021/07/10 03:22:24;;;;;;;25.40;15.33;;;17.10;99.90;;;;;;5000719;28;20301;-51
2021/07/10 03:24:51;;;;;;;27.80;16.50;;;17.20;99.90;;;;;;4997994;28;20312;-51
2021/07/10 03:27:18;;;;;;;25.67;14.73;;;17.10;99.90;;;;;;5000612;28;20708;-51
2021/07/10 03:29:45;;;;;;;28.50;16.80;;;17.20;99.90;;;;;;4998723;28;20312;-52
2021/07/10 03:32:11;;;;;;;28.10;16.30;;;17.20;99.90;;;;;;4998758;28;20733;-51
2021/07/10 03:34:38;;;;;;;26.97;16.00;;;17.10;99.90;;;;;;4999061;28;20293;-51
2021/07/10 03:37:05;;;;;;;26.00;15.10;;;17.30;99.90;;;;;;4998004;28;20299;-51
2021/07/10 03:39:32;;;;;;;26.70;15.63;;;17.20;99.90;;;;;;4999898;28;20237;-51
2021/07/10 03:41:59;;;;;;;26.23;15.23;;;17.10;99.90;;;;;;4999947;28;20336;-51
2021/07/10 03:44:25;;;;;;;28.47;14.67;;;17.20;99.90;;;;;;4999343;28;20295;-52
2021/07/10 03:46:52;;;;;;;27.60;15.50;;;17.10;99.90;;;;;;4999198;28;20263;-51
2021/07/10 03:49:19;;;;;;;25.93;15.33;;;17.10;99.90;;;;;;4997959;28;20233;-52
2021/07/10 03:51:46;;;;;;;26.90;14.97;;;17.10;99.90;;;;;;4997194;28;20212;-52
2021/07/10 03:54:12;;;;;;;28.57;15.27;;;17.10;99.90;;;;;;4999066;28;20233;-50
2021/07/10 03:56:39;;;;;;;22.97;15.07;;;17.10;99.90;;;;;;4997829;28;20224;-50
2021/07/10 03:59:06;;;;;;;22.93;15.07;;;16.90;99.90;;;;;;4998277;28;20293;-50
2021/07/10 04:01:33;;;;;;;28.20;15.60;;;17.00;99.90;;;;;;4999237;28;20621;-53
2021/07/10 04:04:01;;;;;;;26.30;15.67;;;17.00;99.90;;;;;;4997292;28;20226;-53
2021/07/10 04:06:28;;;;;;;25.40;14.20;;;17.00;99.90;;;;;;4998507;28;20352;-53
2021/07/10 04:08:55;;;;;;;24.50;14.83;;;17.10;99.90;;;;;;4994696;28;20240;-53
2021/07/10 04:11:22;;;;;;;27.97;15.23;;;17.10;99.90;;;;;;4999554;28;20222;-53
2021/07/10 04:13:50;;;;;;;27.67;15.53;;;17.10;99.90;;;;;;4995674;28;20207;-50
2021/07/10 04:16:17;;;;;;;25.47;14.43;;;17.20;99.90;;;;;;4998154;28;20283;-50
2021/07/10 04:18:44;;;;;;;25.47;14.73;;;17.20;99.90;;;;;;4999113;28;20210;-52
2021/07/10 04:21:11;;;;;;;21.90;15.03;;;17.20;99.90;;;;;;4999341;28;20267;-52
2021/07/10 04:23:38;;;;;;;28.13;15.37;;;17.30;99.90;;;;;;4998329;28;20312;-53
2021/07/10 04:26:04;;;;;;;29.30;16.17;;;17.30;99.90;;;;;;4996138;28;20301;-53
2021/07/10 04:28:31;;;;;;;26.93;15.57;;;17.30;99.90;;;;;;4995650;28;20292;-53
2021/07/10 04:30:58;;;;;;;26.83;15.60;;;17.40;99.90;;;;;;4996671;28;20220;-53
2021/07/10 04:33:25;;;;;;;27.93;15.77;;;17.30;99.90;;;;;;4999159;28;20203;-53
2021/07/10 04:35:52;;;;;;;26.80;15.93;;;17.40;99.90;;;;;;4998160;28;20301;-50
2021/07/10 04:38:20;;;;;;;31.70;15.60;;;17.30;99.90;;;;;;4997910;28;20251;-53
2021/07/10 04:40:47;;;;;;;24.87;14.17;;;17.10;99.90;;;;;;4997130;28;20337;-52
2021/07/10 04:43:14;;;;;;;28.60;14.73;;;17.00;99.90;;;;;;4995649;28;20689;-53
2021/07/10 04:45:41;;;;;;;26.17;15.13;;;17.10;99.90;;;;;;4999275;28;20395;-52
2021/07/10 04:48:08;;;;;;;24.10;14.57;;;17.10;99.90;;;;;;4999162;28;20675;-53
2021/07/10 04:50:35;;;;;;;22.63;13.80;;;17.30;99.90;;;;;;4998494;28;20672;-53
2021/07/10 04:53:03;;;;;;;27.47;15.47;;;17.30;99.90;;;;;;4997929;28;20239;-53
2021/07/10 04:55:30;;;;;;;29.87;16.33;;;17.30;99.90;;;;;;4994050;28;20684;-53
2021/07/10 04:57:57;;;;;;;23.77;14.60;;;17.20;99.90;;;;;;4997681;28;20247;-50
2021/07/10 05:00:24;;;;;;;25.77;14.77;;;17.40;99.90;;;;;;4997423;28;20256;-51
2021/07/10 05:02:51;;;;;;;28.87;15.63;;;17.50;99.90;;;;;;4997383;28;20376;-50
2021/07/10 05:05:18;;;;;;;27.70;15.43;;;17.40;99.90;;;;;;4999056;28;20715;-50
2021/07/10 05:07:45;;;;;;;24.53;14.33;;;17.40;99.90;;;;;;4994241;28;20500;-51
2021/07/10 05:10:14;;;;;;;28.77;15.27;;;17.30;99.90;;;;;;4998075;28;20253;-51
2021/07/10 05:12:41;;;;;;;27.17;15.53;;;17.40;99.90;;;;;;4997660;28;20253;-51
2021/07/10 05:15:08;;;;;;;27.13;15.77;;;17.50;99.90;;;;;;4997523;28;20235;-51
2021/07/10 05:17:35;;;;;;;27.07;15.43;;;17.50;99.90;;;;;;4997750;28;20687;-50
2021/07/10 05:20:07;;;;;;;27.63;16.00;;;17.60;99.90;;;;;;4998056;28;20229;-51
2021/07/10 05:22:34;;;;;;;33.07;16.20;;;17.90;99.90;;;;;;4997417;28;20211;-51
2021/07/10 05:25:01;;;;;;;29.73;15.57;;;17.90;99.90;;;;;;4998301;28;20229;-51
2021/07/10 05:27:27;;;;;;;30.10;15.83;;;17.90;99.90;;;;;;4997240;28;20692;-51
2021/07/10 05:29:54;;;;;;;26.63;16.63;;;18.10;99.90;;;;;;4997539;28;20245;-50
2021/07/10 05:32:21;;;;;;;29.73;16.17;;;18.10;99.90;;;;;;4996807;28;20225;-54
2021/07/10 05:34:48;;;;;;;34.73;16.63;;;18.20;99.90;;;;;;4998705;28;20639;-50
2021/07/10 05:37:15;;;;;;;35.07;16.07;;;18.10;99.90;;;;;;4996957;28;20610;-53
2021/07/10 05:39:42;;;;;;;26.00;14.60;;;18.30;99.90;;;;;;4993652;28;20842;-50
2021/07/10 05:42:10;;;;;;;26.47;14.70;;;18.20;99.90;;;;;;4996428;28;20663;-51
2021/07/10 05:44:37;;;;;;;26.77;14.97;;;18.20;99.90;;;;;;4997950;28;20211;-51
2021/07/10 05:47:05;;;;;;;25.20;15.13;;;18.50;99.90;;;;;;4996812;28;20761;-51
2021/07/10 05:49:32;;;;;;;25.90;14.90;;;18.50;99.90;;;;;;4997425;28;20206;-51
2021/07/10 05:51:59;;;;;;;22.93;14.00;;;18.20;99.90;;;;;;4997661;28;20287;-51
2021/07/10 05:54:26;;;;;;;24.77;15.47;;;18.20;99.90;;;;;;4998724;28;20298;-51
2021/07/10 05:56:53;;;;;;;28.47;16.37;;;18.20;99.90;;;;;;4997329;28;20502;-51
2021/07/10 05:59:20;;;;;;;30.77;16.33;;;18.10;99.90;;;;;;4998483;28;20214;-51
2021/07/10 06:01:47;;;;;;;27.13;15.50;;;18.10;99.90;;;;;;4993834;28;20312;-53
2021/07/10 06:04:14;;;;;;;26.73;16.07;;;18.20;99.90;;;;;;4998165;28;20527;-51
2021/07/10 06:06:40;;;;;;;28.90;15.03;;;18.10;99.90;;;;;;4997516;28;20313;-51
2021/07/10 06:09:08;;;;;;;25.13;15.50;;;18.10;99.90;;;;;;4996720;28;20290;-50
2021/07/10 06:11:35;;;;;;;31.83;15.40;;;18.30;99.90;;;;;;4998183;28;20379;-51
2021/07/10 06:14:07;;;;;;;36.70;17.40;;;18.30;99.90;;;;;;4996720;28;20249;-51
2021/07/10 06:16:35;;;;;;;30.03;16.13;;;18.40;99.90;;;;;;4996934;28;20748;-51
2021/07/10 06:19:04;;;;;;;28.70;15.93;;;18.30;99.90;;;;;;4997195;28;20211;-51
2021/07/10 06:21:31;;;;;;;32.10;16.50;;;18.50;99.90;;;;;;4997977;28;20350;-51
2021/07/10 06:23:58;;;;;;;29.10;14.33;;;18.70;99.90;;;;;;4998866;28;20207;-51
2021/07/10 06:26:25;;;;;;;26.57;14.30;;;18.90;99.90;;;;;;5001058;28;20710;-51
2021/07/10 06:28:52;;;;;;;21.03;13.03;;;19.00;99.90;;;;;;4997338;28;20302;-51
2021/07/10 06:31:20;;;;;;;23.53;13.13;;;19.00;99.90;;;;;;4995260;28;20259;-51
2021/07/10 06:33:48;;;;;;;21.03;13.87;;;19.10;99.90;;;;;;4997352;28;20212;-51
2021/07/10 06:36:15;;;;;;;21.77;12.00;;;19.10;99.90;;;;;;4996405;28;20676;-50
2021/07/10 06:38:41;;;;;;;19.70;11.30;;;19.40;94.80;;;;;;4996589;28;20246;-53
2021/07/10 06:41:08;;;;;;;21.73;11.27;;;19.40;1.00;;;;;;4994917;28;20210;-52
2021/07/10 06:43:35;;;;;;;19.20;11.40;;;19.60;1.00;;;;;;4995989;28;20302;-51
2021/07/10 06:46:02;;;;;;;16.43;8.67;;;19.50;1.00;;;;;;4990602;28;20211;-52
2021/07/10 06:48:29;;;;;;;10.20;7.27;;;19.60;99.90;;;;;;4997357;28;20203;-51
2021/07/10 06:50:56;;;;;;;11.77;7.47;;;19.60;1.00;;;;;;5001405;28;20250;-52
2021/07/10 06:53:23;;;;;;;12.60;7.17;;;19.70;1.00;;;;;;4998570;28;20288;-53
2021/07/10 06:55:51;;;;;;;13.03;7.57;;;19.70;99.90;;;;;;4997118;28;20625;-51
2021/07/10 06:58:18;;;;;;;14.57;9.13;;;19.80;1.00;;;;;;4998819;28;20896;-51
2021/07/10 07:00:49;;;;;;;14.43;9.43;;;19.80;1.00;;;;;;4997304;28;20690;-51
2021/07/10 07:03:15;;;;;;;12.33;8.83;;;19.80;1.00;;;;;;4999972;28;21066;-51
2021/07/10 07:05:42;;;;;;;14.27;8.77;;;19.80;1.00;;;;;;4997459;28;20343;-51
2021/07/10 07:08:11;;;;;;;16.30;8.80;;;19.60;1.00;;;;;;5000367;28;20656;-51
2021/07/10 07:10:38;;;;;;;15.70;8.87;;;19.50;1.00;;;;;;4999996;28;20620;-51
2021/07/10 07:13:05;;;;;;;14.80;9.20;;;19.70;1.00;;;;;;5001012;28;20263;-51
2021/07/10 07:15:32;;;;;;;11.50;7.40;;;19.70;1.00;;;;;;4999945;28;20253;-51
2021/07/10 07:17:59;;;;;;;14.17;8.23;;;19.80;1.00;;;;;;4999684;28;20235;-52
2021/07/10 07:20:26;;;;;;;14.50;8.63;;;19.80;99.90;;;;;;5000272;28;20498;-52
2021/07/10 07:22:53;;;;;;;13.63;8.73;;;19.80;99.90;;;;;;4998654;28;20647;-51
2021/07/10 07:25:21;;;;;;;10.20;7.37;;;19.80;99.90;;;;;;4999987;28;20257;-52
2021/07/10 07:27:50;;;;;;;12.53;7.70;;;20.00;99.90;;;;;;5001572;28;20282;-51
2021/07/10 07:30:18;;;;;;;12.47;8.20;;;20.20;99.90;;;;;;4999659;28;20236;-51
2021/07/10 07:32:45;;;;;;;12.65;8.30;;;20.00;99.90;;;;;;4999073;28;20525;-50
2021/07/10 07:35:14;;;;;;;10.97;6.93;;;20.10;1.00;;;;;;4999361;28;20286;-50
2021/07/10 07:37:41;;;;;;;14.00;7.30;;;20.60;1.00;;;;;;4999322;28;21186;-50
2021/07/10 07:40:10;;;;;;;12.57;6.17;;;21.00;99.90;;;;;;4995966;28;20243;-50
2021/07/10 07:42:38;;;;;;;10.43;7.63;;;21.40;1.00;;;;;;4998457;28;20211;-50
2021/07/10 07:45:07;;;;;;;10.80;6.47;;;21.20;1.00;;;;;;5000081;28;20667;-50
2021/07/10 07:47:35;;;;;;;9.73;6.40;;;21.10;1.00;;;;;;4995685;28;20253;-50
2021/07/10 07:50:04;;;;;;;6.70;4.80;;;21.40;1.00;;;;;;4999695;28;20273;-50
2021/07/10 07:52:31;;;;;;;10.70;6.40;;;22.00;99.90;;;;;;4998937;28;20233;-50
2021/07/10 07:54:58;;;;;;;9.57;6.23;;;22.00;1.00;;;;;;4998409;28;20367;-50
2021/07/10 07:57:25;;;;;;;15.73;7.50;;;22.30;1.00;;;;;;4998356;28;20304;-50
2021/07/10 07:59:51;;;;;;;8.83;6.27;;;22.00;22.20;;;;;;4999050;28;20311;-51
2021/07/10 08:02:18;;;;;;;8.87;5.23;;;22.40;1.00;;;;;;4997750;28;20222;-51
2021/07/10 08:04:45;;;;;;;9.23;6.20;;;22.60;99.90;;;;;;4999238;28;20241;-51
2021/07/10 08:07:12;;;;;;;11.27;6.17;;;22.90;99.90;;;;;;4994661;28;20222;-51
2021/07/10 08:09:38;;;;;;;12.27;5.93;;;22.20;99.90;;;;;;4999591;28;20234;-51
2021/07/10 08:12:07;;;;;;;7.20;5.63;;;22.40;1.00;;;;;;4993861;28;20590;-51
2021/07/10 08:14:34;;;;;;;6.87;5.20;;;22.30;99.90;;;;;;4997910;28;20236;-51
2021/07/10 08:17:01;;;;;;;9.47;5.73;;;22.20;1.00;;;;;;4998029;28;20264;-51
2021/07/10 08:19:28;;;;;;;9.33;5.20;;;22.10;99.90;;;;;;4998595;28;20207;-51
2021/07/10 08:21:55;;;;;;;8.23;4.57;;;22.50;1.00;;;;;;4998710;28;20241;-51
2021/07/10 08:24:22;;;;;;;7.80;4.50;;;22.20;1.00;;;;;;4998391;28;20320;-51
2021/07/10 08:26:49;;;;;;;10.63;5.37;;;22.20;1.00;;;;;;4998631;28;20248;-51
2021/07/10 08:29:16;;;;;;;9.13;5.43;;;22.30;99.90;;;;;;4998257;28;20267;-51
2021/07/10 08:31:43;;;;;;;8.70;5.30;;;22.30;1.00;;;;;;4997382;28;20704;-51
2021/07/10 08:34:10;;;;;;;8.17;4.87;;;22.30;1.00;;;;;;4998002;28;20205;-51
2021/07/10 08:36:37;;;;;;;8.63;6.27;;;22.90;99.90;;;;;;4997969;28;20293;-50
2021/07/10 08:39:07;;;;;;;9.47;6.57;;;23.50;1.00;;;;;;4997327;28;20264;-51
2021/07/10 08:41:34;;;;;;;11.57;6.53;;;22.50;1.00;;;;;;4997794;28;20209;-51
2021/07/10 08:44:02;;;;;;;10.13;7.03;;;22.70;1.00;;;;;;4998558;28;20673;-51
2021/07/10 08:46:29;;;;;;;9.50;6.87;;;23.20;1.00;;;;;;4997151;28;20300;-51
2021/07/10 08:48:57;;;;;;;10.83;7.20;;;23.10;1.00;;;;;;4997524;28;20269;-51
2021/07/10 08:51:24;;;;;;;11.57;6.97;;;23.40;99.90;;;;;;4997848;28;20295;-51
2021/07/10 08:53:51;;;;;;;9.80;6.83;;;23.00;1.00;;;;;;4998714;28;20200;-51
2021/07/10 08:56:18;;;;;;;11.27;7.07;;;22.90;1.00;;;;;;4993965;28;20238;-51
2021/07/10 08:58:45;;;;;;;9.60;6.83;;;22.70;1.00;;;;;;4994525;28;20324;-51
2021/07/10 09:01:12;;;;;;;10.27;6.87;;;23.60;1.00;;;;;;4993430;28;20211;-51
2021/07/10 09:03:40;;;;;;;9.60;6.80;;;23.50;1.00;;;;;;4996235;28;20245;-51
2021/07/10 09:06:08;;;;;;;8.77;6.43;;;23.40;1.00;;;;;;4991195;28;20237;-51
2021/07/10 09:08:35;;;;;;;12.90;8.43;;;23.90;99.90;;;;;;4994516;28;20251;-51
2021/07/10 09:11:14;;;;;;;12.10;7.57;;;23.30;99.90;;;;;;4990470;28;20271;-51
2021/07/10 09:13:48;;;;;;;12.37;7.83;;;23.10;1.00;;;;;;4990036;28;20199;-51
2021/07/10 09:16:29;;;;;;;11.07;7.80;;;23.70;99.90;;;;;;4996711;28;20209;-51
2021/07/10 09:19:07;;;;;;;8.43;6.10;;;22.90;99.90;;;;;;4997045;28;20208;-51
2021/07/10 09:21:48;;;;;;;13.40;8.20;;;23.50;99.90;;;;;;4996444;28;20243;-51
2021/07/10 09:24:36;;;;;;;11.43;7.30;;;23.20;99.90;;;;;;4996621;28;20711;-50
2021/07/10 09:27:06;;;;;;;9.47;6.07;;;23.00;1.00;;;;;;4994227;28;20322;-51
2021/07/10 09:29:41;;;;;;;9.40;6.13;;;23.70;1.00;;;;;;4995155;28;20208;-51
2021/07/10 09:32:11;;;;;;;11.10;7.27;;;24.10;1.00;;;;;;4990296;28;20233;-51
2021/07/10 09:34:44;;;;;;;8.40;6.20;;;23.30;1.00;;;;;;4993878;28;20565;-51
2021/07/10 09:37:14;;;;;;;10.70;7.77;;;23.90;99.90;;;;;;4991895;28;20697;-51
2021/07/10 09:40:10;;;;;;;10.60;6.83;;;23.80;1.00;;;;;;4994617;28;20207;-51
2021/07/10 09:42:42;;;;;;;8.67;6.77;;;23.00;99.90;;;;;;4994479;28;20231;-51
2021/07/10 09:45:16;;;;;;;10.23;6.90;;;23.70;99.90;;;;;;4997104;28;20299;-51
2021/07/10 09:47:45;;;;;;;10.47;7.97;;;24.20;1.00;;;;;;4995171;28;20385;-51
2021/07/10 09:50:18;;;;;;;12.40;7.13;;;23.70;1.00;;;;;;4993796;28;20737;-51
2021/07/10 09:52:44;;;;;;;9.27;6.43;;;23.70;99.90;;;;;;4992083;28;20209;-51
2021/07/10 09:55:16;;;;;;;12.20;8.03;;;24.50;1.00;;;;;;4997591;28;20290;-51
2021/07/10 09:57:45;;;;;;;9.63;6.70;;;23.70;1.00;;;;;;4996089;28;20266;-51
2021/07/10 10:00:18;;;;;;;9.27;6.53;;;23.40;1.00;;;;;;4996976;28;20646;-51
2021/07/10 10:02:53;;;;;;;8.33;5.47;;;23.40;1.00;;;;;;4994641;28;20861;-51
2021/07/10 10:05:28;;;;;;;7.53;5.17;;;23.00;1.00;;;;;;4994880;28;20717;-51
2021/07/10 10:07:57;;;;;;;8.67;5.03;;;23.10;1.00;;;;;;4993698;28;20314;-51
2021/07/10 10:10:24;;;;;;;7.50;5.30;;;23.00;1.00;;;;;;4994648;28;20238;-51
2021/07/10 10:13:07;;;;;;;7.07;4.73;;;23.50;1.00;;;;;;4994808;28;20690;-49
2021/07/10 10:15:49;;;;;;;6.87;5.43;;;23.90;1.00;;;;;;4994385;28;20320;-52
2021/07/10 10:18:24;;;;;;;7.00;5.50;;;24.30;99.90;;;;;;4995217;28;20200;-50
2021/07/10 10:20:52;;;;;;;9.03;6.20;;;23.60;1.00;;;;;;4995090;28;20302;-50
2021/07/10 10:23:23;;;;;;;7.20;5.23;;;23.10;1.00;;;;;;4991518;28;20569;-50
2021/07/10 10:25:50;;;;;;;7.43;5.10;;;23.30;1.00;;;;;;4993224;28;20277;-52
2021/07/10 10:28:20;;;;;;;8.03;5.67;;;23.50;1.00;;;;;;4994239;28;20895;-49
2021/07/10 10:30:55;;;;;;;7.40;5.07;;;23.50;1.00;;;;;;4994075;28;20595;-50
2021/07/10 10:33:24;;;;;;;7.57;6.17;;;23.20;1.00;;;;;;4995264;28;20519;-50
2021/07/10 10:35:53;;;;;;;7.73;5.50;;;23.20;1.00;;;;;;4994785;28;20224;-51
2021/07/10 10:38:20;;;;;;;7.20;5.27;;;23.00;1.00;;;;;;4995210;28;20298;-51
2021/07/10 10:40:51;;;;;;;9.07;4.97;;;23.20;1.00;;;;;;4994469;28;20289;-51
2021/07/10 10:43:20;;;;;;;8.23;5.60;;;23.50;99.90;;;;;;4991959;28;20210;-50
2021/07/10 10:45:47;;;;;;;5.63;4.70;;;23.00;1.00;;;;;;4996231;28;20227;-51
2021/07/10 10:48:17;;;;;;;16.17;5.60;;;23.40;1.00;;;;;;4995229;28;20315;-51
2021/07/10 10:50:44;;;;;;;6.07;4.63;;;23.60;1.00;;;;;;4995383;28;20519;-51
2021/07/10 10:53:22;;;;;;;6.80;4.73;;;24.50;1.00;;;;;;4993010;28;20290;-51
2021/07/10 10:55:49;;;;;;;8.57;5.70;;;24.20;99.90;;;;;;4990339;28;20265;-51
2021/07/10 10:58:26;;;;;;;9.87;6.00;;;23.80;91.90;;;;;;4993624;28;20248;-51
2021/07/10 11:01:06;;;;;;;7.93;5.37;;;23.40;99.90;;;;;;4994418;28;20804;-51
2021/07/10 11:03:37;;;;;;;7.67;5.17;;;24.20;99.90;;;;;;4989573;28;20209;-51
2021/07/10 11:06:05;;;;;;;6.60;5.10;;;25.40;1.00;;;;;;4992394;28;20269;-51
2021/07/10 11:08:34;;;;;;;4.80;4.30;;;25.80;99.90;;;;;;4992573;28;20236;-51
2021/07/10 11:11:01;;;;;;;8.27;4.90;;;25.50;99.90;;;;;;4994129;28;20236;-50
2021/07/10 11:13:29;;;;;;;5.87;4.50;;;24.90;99.90;;;;;;4994052;28;20213;-51
2021/07/10 11:16:10;;;;;;;11.23;5.00;;;25.20;99.90;;;;;;4994404;28;20204;-50
2021/07/10 11:18:47;;;;;;;5.20;4.33;;;25.30;99.90;;;;;;4994505;28;20750;-51
2021/07/10 11:21:44;;;;;;;4.43;3.20;;;24.80;1.00;;;;;;4992393;28;20212;-51
2021/07/10 11:26:56;;;;;;;5.67;4.40;;;25.20;99.90;;;;;;4991561;28;20292;-50
2021/07/10 11:29:27;;;;;;;5.10;4.37;;;25.20;99.90;;;;;;4995653;28;20314;-50
2021/07/10 11:32:14;;;;;;;6.17;4.20;;;24.50;99.90;;;;;;4992709;28;20312;-50
2021/07/10 11:34:46;;;;;;;5.90;4.60;;;24.00;99.90;;;;;;4993501;28;20640;-51
2021/07/10 11:37:20;;;;;;;5.30;3.93;;;23.80;99.90;;;;;;4994960;28;20290;-50
2021/07/10 11:39:53;;;;;;;3.73;3.10;;;24.80;99.90;;;;;;4997573;28;20247;-51
2021/07/10 11:42:20;;;;;;;3.23;2.90;;;25.90;1.00;;;;;;4994784;28;20317;-51
2021/07/10 11:44:49;;;;;;;5.20;4.00;;;26.70;1.00;;;;;;4995048;28;20594;-51
2021/07/10 11:47:53;;;;;;;4.97;3.80;;;27.50;1.00;;;;;;4995472;28;20222;-51
2021/07/10 11:50:22;;;;;;;4.97;4.00;;;26.70;1.00;;;;;;4989406;28;20284;-51
2021/07/10 11:53:00;;;;;;;5.33;4.30;;;25.60;1.00;;;;;;5002521;28;20263;-50
2021/07/10 11:55:30;;;;;;;5.17;3.07;;;25.00;90.70;;;;;;4997273;28;20271;-50
2021/07/10 11:57:57;;;;;;;3.60;3.07;;;25.30;92.50;;;;;;4990659;28;20237;-50
2021/07/10 12:00:25;;;;;;;5.53;3.03;;;25.10;1.00;;;;;;4995971;28;20260;-50
2021/07/10 12:02:52;;;;;;;3.83;3.43;;;25.20;1.00;;;;;;4993755;28;20275;-50
2021/07/10 12:05:24;;;;;;;4.03;3.47;;;25.00;99.90;;;;;;4994276;28;20220;-51
2021/07/10 12:07:56;;;;;;;4.30;3.90;;;24.40;99.90;;;;;;4995581;28;20249;-51
2021/07/10 12:10:25;;;;;;;4.23;3.43;;;24.10;99.90;;;;;;4995598;28;20201;-51
2021/07/10 12:12:57;;;;;;;4.63;3.30;;;24.10;1.00;;;;;;4995188;28;20288;-51
2021/07/10 12:15:25;;;;;;;3.97;3.50;;;24.20;99.90;;;;;;4995584;28;20563;-51
2021/07/10 12:17:55;;;;;;;4.10;3.70;;;23.90;99.90;;;;;;4994282;28;20288;-51
2021/07/10 12:20:24;;;;;;;6.07;3.97;;;24.00;99.90;;;;;;4996117;28;20213;-51
2021/07/10 12:22:53;;;;;;;4.70;3.83;;;23.60;99.90;;;;;;4991864;28;20245;-51
2021/07/10 12:25:23;;;;;;;4.37;3.50;;;23.60;99.90;;;;;;4994968;28;20722;-50
2021/07/10 12:27:52;;;;;;;6.00;4.07;;;23.80;99.90;;;;;;4995820;28;20217;-51
2021/07/10 12:30:33;;;;;;;4.73;3.23;;;24.00;99.90;;;;;;4991911;28;20796;-51
2021/07/10 12:33:00;;;;;;;4.13;3.60;;;24.00;39.80;;;;;;4992570;28;21664;-51
2021/07/10 12:35:26;;;;;;;4.33;3.33;;;23.80;99.90;;;;;;4996554;28;22453;-51
2021/07/10 12:38:08;;;;;;;4.00;3.17;;;24.10;99.90;;;;;;4992598;28;20295;-51
2021/07/10 12:40:34;;;;;;;4.30;3.47;;;24.00;99.90;;;;;;4994158;28;20280;-51
2021/07/10 12:43:01;;;;;;;5.13;3.57;;;23.80;99.90;;;;;;4996004;28;20301;-51
2021/07/10 12:45:30;;;;;;;4.73;3.37;;;24.10;99.90;;;;;;4996496;28;20614;-51
2021/07/10 12:48:01;;;;;;;3.90;3.23;;;24.00;99.90;;;;;;4996434;28;20249;-51